createdAt,value
2022-11-15T00:02:21.973Z,46.27
2022-11-15T00:08:42.595Z,36.33
2022-11-15T00:15:03.633Z,36.95
2022-11-15T00:21:24.230Z,38.13
2022-11-15T00:27:46.571Z,38.53
2022-11-15T00:34:07.656Z,43.42
2022-11-15T00:40:28.917Z,38.70
2022-11-15T00:46:49.429Z,40.78
2022-11-15T00:53:10.404Z,29.38
2022-11-15T00:59:31.183Z,35.28
2022-11-15T01:05:52.064Z,41.38
2022-11-15T01:12:12.857Z,41.10
2022-11-15T01:18:33.987Z,34.28
2022-11-15T01:24:54.651Z,33.38
2022-11-15T01:31:21.001Z,36.80
2022-11-15T01:37:41.961Z,41.35
2022-11-15T01:44:41.205Z,38.10
2022-11-15T01:51:07.743Z,37.42
2022-11-15T01:57:28.392Z,42.83
2022-11-15T02:03:57.968Z,32.70
2022-11-15T02:10:22.155Z,39.13
2022-11-15T02:17:09.178Z,37.40
2022-11-15T02:23:42.737Z,42.22
2022-11-15T02:30:22.895Z,36.55
2022-11-15T02:36:56.008Z,47.40
2022-11-15T02:43:51.183Z,41.27
2022-11-15T02:50:14.911Z,33.75
2022-11-15T03:03:31.083Z,39.95
2022-11-15T03:10:08.980Z,52.08
2022-11-15T03:16:29.813Z,37.67
2022-11-15T03:22:51.849Z,39.95
2022-11-15T03:29:21.418Z,43.95
2022-11-15T03:35:45.791Z,38.47
2022-11-15T03:42:25.230Z,38.53
2022-11-15T03:48:51.777Z,30.58
2022-11-15T03:55:15.140Z,35.33
2022-11-15T04:01:35.996Z,39.50
2022-11-15T04:07:56.753Z,41.95
2022-11-15T04:14:18.057Z,44.22
2022-11-15T04:20:57.661Z,47.22
2022-11-15T04:27:18.392Z,45.17
2022-11-15T04:33:38.857Z,50.75
2022-11-15T04:39:59.539Z,42.35
2022-11-15T04:46:20.143Z,40.08
2022-11-15T04:52:51.486Z,46.40
2022-11-15T04:59:12.224Z,47.15
2022-11-15T05:05:33.257Z,50.15
2022-11-15T05:11:54.091Z,51.15
2022-11-15T05:18:18.262Z,36.70
2022-11-15T05:24:41.926Z,40.60
2022-11-15T05:31:07.314Z,48.03
2022-11-15T05:37:28.011Z,43.20
2022-11-15T05:43:50.736Z,43.55
2022-11-15T05:50:18.286Z,49.00
2022-11-15T05:56:39.715Z,36.05
2022-11-15T06:03:00.752Z,36.53
2022-11-15T06:09:21.658Z,32.15
2022-11-15T06:15:42.484Z,32.75
2022-11-15T06:22:03.588Z,35.88
2022-11-15T06:28:24.695Z,40.47
2022-11-15T06:34:45.210Z,33.40
2022-11-15T06:41:07.669Z,36.40
2022-11-15T06:47:28.481Z,44.53
2022-11-15T06:53:49.384Z,44.72
2022-11-15T07:00:11.337Z,43.83
2022-11-15T07:06:32.227Z,52.05
2022-11-15T07:12:53.832Z,55.17
2022-11-15T07:19:14.625Z,48.78
2022-11-15T07:25:35.780Z,51.88
2022-11-15T07:31:56.576Z,48.35
2022-11-15T07:38:20.775Z,45.97
2022-11-15T07:44:41.754Z,57.58
2022-11-15T07:51:03.488Z,49.72
2022-11-15T07:57:24.249Z,54.58
2022-11-15T08:03:45.026Z,55.83
2022-11-15T08:10:08.592Z,50.25
2022-11-15T08:16:30.171Z,63.17
2022-11-15T08:22:51.282Z,56.58
2022-11-15T08:29:11.866Z,60.42
2022-11-15T08:35:32.509Z,57.90
2022-11-15T08:41:54.126Z,62.35
2022-11-15T08:48:15.214Z,45.13
2022-11-15T08:54:37.434Z,53.40
2022-11-15T09:00:58.442Z,45.97
2022-11-15T09:07:19.652Z,41.10
2022-11-15T09:13:41.017Z,51.45
2022-11-15T09:20:01.814Z,46.58
2022-11-15T09:26:23.483Z,46.30
2022-11-15T09:32:44.208Z,55.42
2022-11-15T09:39:05.018Z,54.00
2022-11-15T09:45:34.527Z,70.70
2022-11-15T09:51:56.179Z,75.47
2022-11-15T09:58:25.504Z,61.30
2022-11-15T10:04:29.155Z,60.08
2022-11-15T10:10:40.744Z,47.05
2022-11-15T10:17:12.817Z,48.75
2022-11-15T10:23:20.185Z,60.30
2022-11-15T10:29:27.009Z,55.00
2022-11-15T10:35:32.206Z,49.50
2022-11-15T10:41:41.019Z,42.50
2022-11-15T10:47:43.438Z,44.60
2022-11-15T10:53:47.547Z,50.75
2022-11-15T10:59:53.489Z,59.35
2022-11-15T11:06:15.913Z,47.75
2022-11-15T11:12:29.739Z,58.85
2022-11-15T11:18:42.316Z,52.55
2022-11-15T11:25:03.763Z,46.30
2022-11-15T11:31:28.239Z,49.38
2022-11-15T11:38:01.403Z,57.38
2022-11-15T11:44:09.410Z,69.30
2022-11-15T11:50:16.979Z,51.50
2022-11-15T11:56:33.980Z,53.47
2022-11-15T12:02:43.382Z,71.95
2022-11-15T12:09:13.839Z,56.28
2022-11-15T12:15:28.058Z,54.97
2022-11-15T12:22:14.529Z,50.17
2022-11-15T12:28:27.200Z,60.80
2022-11-15T12:34:30.418Z,38.83
2022-11-15T12:40:57.627Z,46.78
2022-11-15T12:47:01.996Z,45.58
2022-11-15T12:53:26.682Z,43.97
2022-11-15T13:00:25.385Z,48.60
2022-11-15T13:06:44.246Z,43.13
2022-11-15T13:12:47.091Z,52.28
2022-11-15T13:24:58.430Z,42.58
2022-11-15T13:31:22.085Z,42.42
2022-11-15T13:37:24.335Z,37.47
2022-11-15T13:43:35.566Z,39.33
2022-11-15T13:49:39.625Z,43.97
2022-11-15T13:55:44.958Z,39.95
2022-11-15T14:01:47.637Z,41.40
2022-11-15T14:08:03.149Z,38.63
2022-11-15T14:14:14.663Z,36.55
2022-11-15T14:20:26.612Z,37.65
2022-11-15T14:26:35.138Z,38.67
2022-11-15T14:32:51.553Z,39.63
2022-11-15T14:38:55.941Z,38.20
2022-11-15T14:44:58.254Z,36.20
2022-11-15T14:51:00.600Z,50.70
2022-11-15T14:57:02.802Z,43.53
2022-11-15T15:03:06.239Z,37.53
2022-11-15T15:09:08.390Z,54.55
2022-11-15T15:15:16.355Z,46.30
2022-11-15T15:21:24.597Z,49.33
2022-11-15T15:27:26.719Z,39.15
2022-11-15T15:33:29.074Z,44.53
2022-11-15T15:39:31.401Z,49.10
2022-11-15T15:45:34.045Z,41.22
2022-11-15T15:57:38.462Z,45.92
2022-11-15T16:03:40.711Z,42.85
2022-11-15T16:16:04.832Z,51.17
2022-11-15T16:22:07.875Z,46.42
2022-11-15T16:28:23.557Z,55.88
2022-11-15T16:34:30.011Z,49.75
2022-11-15T16:40:36.508Z,41.67
2022-11-15T16:46:41.399Z,38.45
2022-11-15T16:52:43.645Z,47.20
2022-11-15T16:58:45.893Z,48.25
2022-11-15T17:04:48.987Z,52.53
2022-11-15T17:10:51.559Z,59.67
2022-11-15T17:16:56.463Z,55.33
2022-11-15T17:22:58.810Z,57.17
2022-11-15T17:29:01.943Z,52.90
2022-11-15T17:35:11.937Z,57.10
2022-11-15T17:41:16.797Z,45.65
2022-11-15T17:47:19.093Z,54.42
2022-11-15T17:53:21.748Z,53.03
2022-11-15T18:05:26.138Z,55.33
2022-11-15T18:11:33.494Z,54.78
2022-11-15T18:17:36.960Z,67.68
2022-11-15T18:23:39.813Z,57.42
2022-11-15T18:29:42.361Z,62.53
2022-11-15T18:35:44.609Z,61.17
2022-11-15T18:41:47.164Z,65.50
2022-11-15T18:47:49.302Z,66.75
2022-11-15T18:53:56.556Z,60.73
2022-11-15T18:59:58.717Z,65.22
2022-11-15T19:06:12.804Z,65.20
2022-11-15T19:12:15.392Z,69.95
2022-11-15T19:18:17.775Z,67.93
2022-11-15T19:24:20.012Z,65.13
2022-11-15T19:30:22.685Z,67.88
2022-11-15T19:42:31.368Z,60.75
2022-11-15T19:48:35.160Z,69.72
2022-11-15T19:54:37.388Z,65.20
2022-11-15T20:00:39.563Z,72.15
2022-11-15T20:06:43.232Z,57.65
2022-11-15T20:12:45.469Z,90.13
2022-11-15T20:18:50.265Z,75.90
2022-11-15T20:24:52.534Z,81.22
2022-11-15T20:30:57.535Z,79.35
2022-11-15T20:36:59.746Z,73.85
2022-11-15T20:43:02.007Z,70.57
2022-11-15T20:49:04.174Z,73.68
2022-11-15T20:55:06.774Z,82.82
2022-11-15T21:01:11.767Z,81.97
2022-11-15T21:07:14.173Z,70.82
2022-11-15T21:13:17.012Z,72.38
2022-11-15T21:19:22.767Z,74.05
2022-11-15T21:25:29.783Z,93.97
2022-11-15T21:31:32.200Z,80.93
2022-11-15T21:37:34.567Z,80.75
2022-11-15T21:43:36.736Z,85.72
2022-11-15T21:49:39.277Z,86.13
2022-11-15T21:55:41.470Z,82.47
2022-11-15T22:02:02.183Z,87.97
2022-11-15T22:08:04.418Z,100.80
2022-11-15T22:14:07.291Z,88.72
2022-11-15T22:26:31.659Z,91.78
2022-11-15T22:32:33.898Z,82.83
2022-11-15T22:38:37.182Z,79.45
2022-11-15T22:44:39.851Z,82.13
2022-11-15T22:50:43.129Z,85.32
2022-11-15T22:56:45.405Z,93.38
2022-11-15T23:02:51.797Z,72.43
2022-11-15T23:08:55.465Z,86.35
2022-11-15T23:14:57.955Z,80.53
2022-11-15T23:21:00.194Z,81.07
2022-11-15T23:27:05.457Z,94.63
2022-11-15T23:33:26.241Z,84.60
2022-11-15T23:39:29.021Z,87.75
2022-11-15T23:51:33.854Z,76.60
2022-11-15T23:57:36.205Z,89.97
